Time;durP1;ratioP1;P1;durP2;ratioP2;P2;SDS_P1;SDS_P2;PMS_P1;PMS_P2;Temp;Humidity;BMP_temperature;BMP_pressure;BME280_temperature;BME280_humidity;BME280_pressure;Samples;Min_cycle;Max_cycle;Signal;HPM_P1;HPM_P2
2024/02/10 00:00:15;;;;;;;;;;;1.00;100.00;;;;;;5088093;28;19992;-73
2024/02/10 00:02:43;;;;;;;;;;;1.00;100.00;;;;;;5087443;28;20643;-72
2024/02/10 00:05:10;;;;;;;;;;;1.00;100.00;;;;;;5068848;28;20407;-72
2024/02/10 00:07:37;;;;;;;;;;;1.00;100.00;;;;;;5087538;28;19924;-72
2024/02/10 00:10:04;;;;;;;;;;;1.10;100.00;;;;;;5069409;28;20369;-72
2024/02/10 00:12:31;;;;;;;;;;;1.00;100.00;;;;;;5088159;28;19928;-72
2024/02/10 00:15:05;;;;;;;;;;;1.00;100.00;;;;;;5070035;28;19928;-72
2024/02/10 00:17:31;;;;;;;;;;;1.10;100.00;;;;;;5087459;28;19931;-72
2024/02/10 00:19:59;;;;;;;;;;;1.00;100.00;;;;;;5086539;28;19928;-72
2024/02/10 00:22:27;;;;;;;;;;;1.00;100.00;;;;;;5087327;28;19928;-72
2024/02/10 00:24:57;;;;;;;;;;;1.10;100.00;;;;;;5090938;28;20400;-72
2024/02/10 00:27:24;;;;;;;;;;;1.10;100.00;;;;;;5102316;28;20281;-72
2024/02/10 00:29:50;;;;;;;;;;;1.10;100.00;;;;;;5087797;28;20551;-72
2024/02/10 00:32:18;;;;;;;;;;;1.10;100.00;;;;;;5087652;28;19932;-72
2024/02/10 00:34:45;;;;;;;;;;;1.10;100.00;;;;;;5087701;28;19924;-72
2024/02/10 00:37:16;;;;;;;;;;;1.10;100.00;;;;;;5086668;28;20359;-71
2024/02/10 00:39:44;;;;;;;;;;;1.10;100.00;;;;;;5086626;28;19939;-71
2024/02/10 00:42:13;;;;;;;;;;;1.00;100.00;;;;;;5087584;28;19928;-72
2024/02/10 00:44:40;;;;;;;;;;;1.00;100.00;;;;;;5103293;28;19927;-72
2024/02/10 00:47:12;;;;;;;;;;;1.00;100.00;;;;;;5087290;28;19970;-71
2024/02/10 00:49:39;;;;;;;;;;;1.00;100.00;;;;;;5086885;28;19928;-71
2024/02/10 00:52:08;;;;;;;;;;;1.00;100.00;;;;;;5086465;28;19977;-71
2024/02/10 00:54:37;;;;;;;;;;;1.00;100.00;;;;;;5094277;28;20362;-71
2024/02/10 00:57:10;;;;;;;;;;;1.00;100.00;;;;;;5094746;28;20042;-71
2024/02/10 00:59:40;;;;;;;;;;;1.00;100.00;;;;;;5086963;28;19924;-71
2024/02/10 01:02:08;;;;;;;;;;;1.00;100.00;;;;;;5087219;28;19985;-71
2024/02/10 01:04:35;;;;;;;;;;;1.00;100.00;;;;;;5087272;28;19932;-71
2024/02/10 01:07:02;;;;;;;;;;;0.90;100.00;;;;;;5101264;28;19936;-71
2024/02/10 01:09:29;;;;;;;;;;;0.90;100.00;;;;;;5086210;28;19966;-71
2024/02/10 01:11:56;;;;;;;;;;;0.90;100.00;;;;;;5086922;28;19939;-71
2024/02/10 01:14:28;;;;;;;;;;;1.00;100.00;;;;;;5068985;28;19977;-72
2024/02/10 01:16:55;;;;;;;;;;;1.00;100.00;;;;;;5086413;28;19928;-71
2024/02/10 01:19:22;;;;;;;;;;;1.00;100.00;;;;;;5085599;28;19931;-71
2024/02/10 01:21:48;;;;;;;;;;;1.00;100.00;;;;;;5084484;28;20031;-71
2024/02/10 01:24:15;;;;;;;;;;;1.00;100.00;;;;;;5085894;28;19936;-71
2024/02/10 01:26:42;;;;;;;;;;;1.10;100.00;;;;;;5086963;28;20931;-71
2024/02/10 01:29:09;;;;;;;;;;;1.10;100.00;;;;;;5086798;28;19946;-71
2024/02/10 01:31:36;;;;;;;;;;;1.10;100.00;;;;;;5068793;28;20022;-71
2024/02/10 01:34:03;;;;;;;;;;;1.10;100.00;;;;;;5067938;28;19934;-71
2024/02/10 01:36:33;;;;;;;;;;;1.10;100.00;;;;;;5085686;28;19973;-71
2024/02/10 01:39:00;;;;;;;;;;;1.10;100.00;;;;;;5085671;28;20385;-71
2024/02/10 01:41:30;;;;;;;;;;;1.10;100.00;;;;;;5086416;28;20381;-71
2024/02/10 01:43:58;;;;;;;;;;;1.10;100.00;;;;;;5086355;28;20015;-71
2024/02/10 01:46:25;;;;;;;;;;;1.10;100.00;;;;;;5086244;28;19956;-71
2024/02/10 01:48:55;;;;;;;;;;;1.10;100.00;;;;;;5086612;28;19935;-72
2024/02/10 01:51:25;;;;;;;;;;;1.10;100.00;;;;;;5089856;28;19932;-71
2024/02/10 01:53:53;;;;;;;;;;;1.10;100.00;;;;;;5088532;28;20692;-71
2024/02/10 01:56:20;;;;;;;;;;;1.20;100.00;;;;;;5080868;28;19964;-71
2024/02/10 01:58:47;;;;;;;;;;;1.10;100.00;;;;;;5090225;28;19924;-71
2024/02/10 02:01:15;;;;;;;;;;;1.20;100.00;;;;;;5090420;28;19932;-71
2024/02/10 02:03:43;;;;;;;;;;;1.20;100.00;;;;;;5090510;28;20018;-71
2024/02/10 02:06:17;;;;;;;;;;;1.20;100.00;;;;;;5077896;28;19932;-71
2024/02/10 02:08:47;;;;;;;;;;;1.20;100.00;;;;;;5089388;28;20627;-71
2024/02/10 02:11:15;;;;;;;;;;;1.20;100.00;;;;;;5089760;28;19924;-71
2024/02/10 02:13:41;;;;;;;;;;;1.20;100.00;;;;;;5104815;28;19978;-71
2024/02/10 02:16:11;;;;;;;;;;;1.20;100.00;;;;;;5071299;28;19947;-71
2024/02/10 02:18:39;;;;;;;;;;;1.20;100.00;;;;;;5090380;28;19928;-71
2024/02/10 02:21:06;;;;;;;;;;;1.20;100.00;;;;;;5089980;28;20536;-71
2024/02/10 02:23:34;;;;;;;;;;;1.20;100.00;;;;;;5090278;28;19928;-71
2024/02/10 02:26:01;;;;;;;;;;;1.20;100.00;;;;;;5089742;28;19928;-71
2024/02/10 02:28:28;;;;;;;;;;;1.20;100.00;;;;;;5089960;28;20005;-71
2024/02/10 02:30:55;;;;;;;;;;;1.20;100.00;;;;;;5089382;28;19999;-71
2024/02/10 02:33:22;;;;;;;;;;;1.20;100.00;;;;;;5071819;28;19928;-71
2024/02/10 02:35:50;;;;;;;;;;;1.20;100.00;;;;;;5071815;28;20345;-71
2024/02/10 02:38:17;;;;;;;;;;;1.20;100.00;;;;;;5089848;28;19932;-72
2024/02/10 02:40:44;;;;;;;;;;;1.20;100.00;;;;;;5088521;28;19932;-71
2024/02/10 02:43:13;;;;;;;;;;;1.20;100.00;;;;;;5070940;28;19929;-71
2024/02/10 02:45:42;;;;;;;;;;;1.20;100.00;;;;;;5075001;28;19928;-73
2024/02/10 02:48:10;;;;;;;;;;;1.20;100.00;;;;;;5070781;28;19928;-71
2024/02/10 02:50:40;;;;;;;;;;;1.20;100.00;;;;;;5070676;28;19973;-72
2024/02/10 02:53:07;;;;;;;;;;;1.20;100.00;;;;;;5071020;28;19935;-72
2024/02/10 02:55:36;;;;;;;;;;;1.20;100.00;;;;;;5094904;28;19935;-72
2024/02/10 02:58:09;;;;;;;;;;;1.20;100.00;;;;;;5069396;28;20369;-72
2024/02/10 03:00:36;;;;;;;;;;;1.20;100.00;;;;;;5069952;28;19928;-71
2024/02/10 03:03:04;;;;;;;;;;;1.20;100.00;;;;;;5075455;28;19959;-72
2024/02/10 03:05:31;;;;;;;;;;;1.20;100.00;;;;;;5088266;28;19928;-72
2024/02/10 03:08:02;;;;;;;;;;;1.30;100.00;;;;;;5082074;28;20377;-72
2024/02/10 03:10:32;;;;;;;;;;;1.30;100.00;;;;;;5070569;28;19973;-72
2024/02/10 03:13:00;;;;;;;;;;;1.30;100.00;;;;;;5088845;28;19951;-71
2024/02/10 03:15:27;;;;;;;;;;;1.30;100.00;;;;;;5070945;28;19932;-71
2024/02/10 03:17:55;;;;;;;;;;;1.30;100.00;;;;;;5104112;28;19971;-71
2024/02/10 03:20:28;;;;;;;;;;;1.30;100.00;;;;;;5088206;28;19973;-71
2024/02/10 03:23:02;;;;;;;;;;;1.30;100.00;;;;;;5068666;28;19950;-71
2024/02/10 03:25:30;;;;;;;;;;;1.30;100.00;;;;;;5087068;28;20006;-71
2024/02/10 03:27:57;;;;;;;;;;;1.40;100.00;;;;;;5070273;28;19969;-71
2024/02/10 03:30:27;;;;;;;;;;;1.40;100.00;;;;;;5088394;28;19981;-71
2024/02/10 03:32:54;;;;;;;;;;;1.40;100.00;;;;;;5069397;28;19928;-71
2024/02/10 03:35:24;;;;;;;;;;;1.40;100.00;;;;;;5057183;28;19935;-71
2024/02/10 03:37:53;;;;;;;;;;;1.40;100.00;;;;;;5070268;28;19928;-71
2024/02/10 03:40:20;;;;;;;;;;;1.40;100.00;;;;;;5088316;28;19938;-71
2024/02/10 03:42:47;;;;;;;;;;;1.40;100.00;;;;;;5070647;28;20007;-71
2024/02/10 03:45:14;;;;;;;;;;;1.40;100.00;;;;;;5081617;28;20015;-72
2024/02/10 03:47:45;;;;;;;;;;;1.40;100.00;;;;;;5088247;28;20001;-71
2024/02/10 03:50:13;;;;;;;;;;;1.40;100.00;;;;;;5069703;28;19931;-71
2024/02/10 03:52:41;;;;;;;;;;;1.40;100.00;;;;;;5088631;28;19938;-71
2024/02/10 03:55:08;;;;;;;;;;;1.40;100.00;;;;;;5079847;28;19928;-72
2024/02/10 03:57:37;;;;;;;;;;;1.40;100.00;;;;;;5073446;28;19928;-71
2024/02/10 04:00:20;;;;;;;;;;;1.30;100.00;;;;;;5087222;28;20376;-71
2024/02/10 04:02:47;;;;;;;;;;;1.30;100.00;;;;;;5069043;28;19924;-71
2024/02/10 04:05:14;;;;;;;;;;;1.30;100.00;;;;;;5088023;28;19982;-71
2024/02/10 04:07:52;;;;;;;;;;;1.30;100.00;;;;;;5089434;28;19935;-71
2024/02/10 04:10:19;;;;;;;;;;;1.30;100.00;;;;;;5070252;28;19924;-71
2024/02/10 04:12:47;;;;;;;;;;;1.30;100.00;;;;;;5087292;28;19924;-72
2024/02/10 04:15:15;;;;;;;;;;;1.40;100.00;;;;;;5069103;28;19928;-71
2024/02/10 04:17:48;;;;;;;;;;;1.40;100.00;;;;;;5068978;28;19958;-72
2024/02/10 04:20:19;;;;;;;;;;;1.40;100.00;;;;;;5067954;28;20546;-71
2024/02/10 04:22:47;;;;;;;;;;;1.40;100.00;;;;;;5066229;28;19924;-71
2024/02/10 04:25:14;;;;;;;;;;;1.40;100.00;;;;;;5087916;28;19928;-72
2024/02/10 04:27:42;;;;;;;;;;;1.40;100.00;;;;;;5069717;28;20265;-72
2024/02/10 04:30:10;;;;;;;;;;;1.30;100.00;;;;;;5051886;28;19931;-71
2024/02/10 04:32:46;;;;;;;;;;;1.40;100.00;;;;;;5053238;28;19942;-71
2024/02/10 04:35:14;;;;;;;;;;;1.40;100.00;;;;;;5087492;28;19928;-71
2024/02/10 04:37:51;;;;;;;;;;;1.40;100.00;;;;;;5069633;28;19928;-71
2024/02/10 04:40:23;;;;;;;;;;;1.40;100.00;;;;;;5069183;28;19981;-71
2024/02/10 04:42:52;;;;;;;;;;;1.40;100.00;;;;;;5087760;28;20424;-71
2024/02/10 04:45:33;;;;;;;;;;;1.40;100.00;;;;;;5086755;28;19928;-71
2024/02/10 04:48:00;;;;;;;;;;;1.40;100.00;;;;;;5087605;28;20013;-71
2024/02/10 04:50:31;;;;;;;;;;;1.40;100.00;;;;;;5086928;28;19993;-71
2024/02/10 04:52:59;;;;;;;;;;;1.40;100.00;;;;;;5069861;28;19928;-71
2024/02/10 04:55:26;;;;;;;;;;;1.40;100.00;;;;;;5100179;28;19932;-71
2024/02/10 04:57:54;;;;;;;;;;;1.40;100.00;;;;;;5087360;28;19928;-71
2024/02/10 05:00:21;;;;;;;;;;;1.50;100.00;;;;;;5068535;28;19981;-72
2024/02/10 05:02:51;;;;;;;;;;;1.50;100.00;;;;;;5071190;28;20025;-71
2024/02/10 05:05:20;;;;;;;;;;;1.50;100.00;;;;;;5086981;28;19932;-71
2024/02/10 05:07:52;;;;;;;;;;;1.50;100.00;;;;;;5086454;28;19924;-71
2024/02/10 05:10:22;;;;;;;;;;;1.50;100.00;;;;;;5102288;28;19928;-71
2024/02/10 05:12:50;;;;;;;;;;;1.50;100.00;;;;;;5087097;28;19928;-72
2024/02/10 05:15:23;;;;;;;;;;;1.50;100.00;;;;;;5086233;28;19928;-72
2024/02/10 05:17:52;;;;;;;;;;;1.50;100.00;;;;;;5067565;28;19927;-71
2024/02/10 05:20:21;;;;;;;;;;;1.50;100.00;;;;;;5087261;28;20022;-71
2024/02/10 05:22:49;;;;;;;;;;;1.50;100.00;;;;;;5068822;28;20396;-71
2024/02/10 05:25:37;;;;;;;;;;;1.50;100.00;;;;;;5089621;28;19976;-71
2024/02/10 05:28:06;;;;;;;;;;;1.50;100.00;;;;;;5073175;28;20022;-71
2024/02/10 05:30:35;;;;;;;;;;;1.50;100.00;;;;;;5073022;28;19928;-71
2024/02/10 05:33:04;;;;;;;;;;;1.50;100.00;;;;;;5073245;28;19936;-72
2024/02/10 05:35:32;;;;;;;;;;;1.50;100.00;;;;;;5072935;28;20007;-72
2024/02/10 05:37:59;;;;;;;;;;;1.60;100.00;;;;;;5086450;28;20614;-71
2024/02/10 05:40:30;;;;;;;;;;;1.60;100.00;;;;;;5072580;28;19935;-72
2024/02/10 05:42:58;;;;;;;;;;;1.60;100.00;;;;;;5072654;28;19924;-72
2024/02/10 05:45:28;;;;;;;;;;;1.60;100.00;;;;;;5089697;28;20022;-72
2024/02/10 05:47:55;;;;;;;;;;;1.60;100.00;;;;;;5090600;28;20469;-72
2024/02/10 05:50:25;;;;;;;;;;;1.60;100.00;;;;;;5090622;28;20047;-72
2024/02/10 05:52:57;;;;;;;;;;;1.60;100.00;;;;;;5090418;28;19928;-71
2024/02/10 05:55:25;;;;;;;;;;;1.60;100.00;;;;;;5118084;27;19928;-72
2024/02/10 05:57:55;;;;;;;;;;;1.60;100.00;;;;;;5091080;28;19968;-71
2024/02/10 06:00:22;;;;;;;;;;;1.70;100.00;;;;;;5106426;28;19977;-72
2024/02/10 06:02:52;;;;;;;;;;;1.70;100.00;;;;;;5088071;28;19924;-72
2024/02/10 06:05:18;;;;;;;;;;;1.70;100.00;;;;;;5078742;28;20645;-71
2024/02/10 06:07:49;;;;;;;;;;;1.70;100.00;;;;;;5059199;28;19997;-72
2024/02/10 06:10:16;;;;;;;;;;;1.70;100.00;;;;;;5071944;28;19935;-72
2024/02/10 06:12:50;;;;;;;;;;;1.70;100.00;;;;;;5105162;28;20493;-72
2024/02/10 06:15:19;;;;;;;;;;;1.70;100.00;;;;;;5089590;28;20009;-72
2024/02/10 06:17:56;;;;;;;;;;;1.80;100.00;;;;;;5088355;28;20133;-72
2024/02/10 06:20:23;;;;;;;;;;;1.80;100.00;;;;;;5088839;28;20385;-72
2024/02/10 06:22:57;;;;;;;;;;;1.80;100.00;;;;;;5090094;28;19955;-72
2024/02/10 06:25:25;;;;;;;;;;;1.80;100.00;;;;;;5071401;28;20658;-72
2024/02/10 06:27:54;;;;;;;;;;;1.80;100.00;;;;;;5071473;28;19938;-72
2024/02/10 06:30:24;;;;;;;;;;;1.80;100.00;;;;;;5071477;28;19931;-72
2024/02/10 06:32:51;;;;;;;;;;;1.80;100.00;;;;;;5071267;28;19935;-72
2024/02/10 06:35:19;;;;;;;;;;;1.80;100.00;;;;;;5089083;28;19928;-72
2024/02/10 06:37:49;;;;;;;;;;;1.80;100.00;;;;;;5089472;28;19948;-71
2024/02/10 06:40:17;;;;;;;;;;;1.80;100.00;;;;;;5071616;28;19928;-71
2024/02/10 06:42:48;;;;;;;;;;;1.90;100.00;;;;;;5089591;28;19935;-72
2024/02/10 06:45:16;;;;;;;;;;;1.90;100.00;;;;;;5071660;28;20375;-72
2024/02/10 06:47:43;;;;;;;;;;;1.90;100.00;;;;;;5089169;28;19940;-72
2024/02/10 06:50:13;;;;;;;;;;;1.90;100.00;;;;;;5094994;28;19928;-71
2024/02/10 06:52:41;;;;;;;;;;;1.90;100.00;;;;;;5088533;28;20011;-72
2024/02/10 06:55:13;;;;;;;;;;;1.90;100.00;;;;;;5081055;28;19974;-72
2024/02/10 06:57:42;;;;;;;;;;;1.90;100.00;;;;;;5073433;28;19924;-72
2024/02/10 07:00:16;;;;;;;;;;;1.90;100.00;;;;;;5069837;28;19943;-72
2024/02/10 07:02:46;;;;;;;;;;;1.90;100.00;;;;;;5102471;28;19932;-71
2024/02/10 07:05:16;;;;;;;;;;;1.90;100.00;;;;;;5089646;28;19928;-71
2024/02/10 07:07:46;;;;;;;;;;;1.90;100.00;;;;;;5084035;28;20328;-71
2024/02/10 07:10:14;;;;;;;;;;;2.00;100.00;;;;;;5071278;28;20001;-71
2024/02/10 07:12:45;;;;;;;;;;;2.00;100.00;;;;;;5069398;28;19932;-71
2024/02/10 07:15:13;;;;;;;;;;;2.00;100.00;;;;;;5087723;28;19928;-71
2024/02/10 07:17:43;;;;;;;;;;;2.00;100.00;;;;;;5087842;28;19928;-71
2024/02/10 07:20:15;;;;;;;;;;;2.00;100.00;;;;;;5071051;28;19931;-71
2024/02/10 07:22:41;;;;;;;;;;;2.00;100.00;;;;;;5071194;28;20018;-71
2024/02/10 07:25:11;;;;;;;;;;;2.00;100.00;;;;;;5089012;28;19936;-71
2024/02/10 07:27:38;;;;;;;;;;;2.10;100.00;;;;;;5089010;28;19953;-71
2024/02/10 07:30:05;;;;;;;;;;;2.10;100.00;;;;;;5088938;28;19969;-72
2024/02/10 07:32:32;;;;;;;;;;;2.10;100.00;;;;;;5087921;28;19940;-71
2024/02/10 07:35:00;;;;;;;;;;;2.10;100.00;;;;;;5087884;28;19928;-71
2024/02/10 07:37:27;;;;;;;;;;;2.10;100.00;;;;;;5088415;28;20380;-71
2024/02/10 07:39:54;;;;;;;;;;;2.10;100.00;;;;;;5070478;28;19928;-71
2024/02/10 07:42:20;;;;;;;;;;;2.10;100.00;;;;;;5088582;28;19935;-71
2024/02/10 07:44:49;;;;;;;;;;;2.10;100.00;;;;;;5088604;28;19928;-71
2024/02/10 07:47:19;;;;;;;;;;;2.20;100.00;;;;;;5087871;28;20377;-71
2024/02/10 07:49:48;;;;;;;;;;;2.20;100.00;;;;;;5082744;28;20444;-71
2024/02/10 07:52:15;;;;;;;;;;;2.20;100.00;;;;;;5103246;28;19970;-70
2024/02/10 07:54:41;;;;;;;;;;;2.20;100.00;;;;;;5094835;28;19939;-70
2024/02/10 07:57:14;;;;;;;;;;;2.20;100.00;;;;;;5108554;28;20023;-70
2024/02/10 07:59:41;;;;;;;;;;;2.20;100.00;;;;;;5090692;28;19935;-70
2024/02/10 08:02:09;;;;;;;;;;;2.30;100.00;;;;;;5086570;28;20044;-70
2024/02/10 08:04:36;;;;;;;;;;;2.20;100.00;;;;;;5087460;28;19928;-70
2024/02/10 08:07:07;;;;;;;;;;;2.20;100.00;;;;;;5088068;28;19995;-70
2024/02/10 08:09:33;;;;;;;;;;;2.20;100.00;;;;;;5086376;28;20020;-70
2024/02/10 08:12:01;;;;;;;;;;;2.30;100.00;;;;;;5087554;28;20005;-69
2024/02/10 08:14:28;;;;;;;;;;;2.20;100.00;;;;;;5069150;28;19928;-70
2024/02/10 08:16:54;;;;;;;;;;;2.30;100.00;;;;;;5087307;28;19982;-70
2024/02/10 08:19:21;;;;;;;;;;;2.30;100.00;;;;;;5087321;28;19963;-70
2024/02/10 08:21:48;;;;;;;;;;;2.30;100.00;;;;;;5087086;28;19938;-70
2024/02/10 08:24:15;;;;;;;;;;;2.30;100.00;;;;;;5087382;28;19924;-70
2024/02/10 08:26:41;;;;;;;;;;;2.30;100.00;;;;;;5087021;28;19989;-70
2024/02/10 08:29:11;;;;;;;;;;;2.30;100.00;;;;;;5069966;28;19942;-70
2024/02/10 08:31:38;;;;;;;;;;;2.30;100.00;;;;;;5085884;28;20001;-70
2024/02/10 08:34:05;;;;;;;;;;;2.30;100.00;;;;;;5087459;28;20389;-70
2024/02/10 08:36:32;;;;;;;;;;;2.40;100.00;;;;;;5087245;28;19960;-70
2024/02/10 08:39:03;;;;;;;;;;;2.40;100.00;;;;;;5087483;28;19936;-70
2024/02/10 08:41:30;;;;;;;;;;;2.40;100.00;;;;;;5087205;28;19968;-70
2024/02/10 08:43:57;;;;;;;;;;;2.40;100.00;;;;;;5067981;28;20380;-70
2024/02/10 08:46:25;;;;;;;;;;;2.40;100.00;;;;;;5102378;28;20026;-70
2024/02/10 08:48:52;;;;;;;;;;;2.50;100.00;;;;;;5086848;28;19932;-70
2024/02/10 08:51:23;;;;;;;;;;;2.50;100.00;;;;;;5070475;28;20062;-70
2024/02/10 08:53:52;;;;;;;;;;;2.50;100.00;;;;;;5087109;28;20002;-70
2024/02/10 08:56:20;;;;;;;;;;;2.60;100.00;;;;;;5082451;28;19927;-70
2024/02/10 08:58:48;;;;;;;;;;;2.60;100.00;;;;;;5086523;28;19928;-70
2024/02/10 09:01:15;;;;;;;;;;;2.60;100.00;;;;;;5085059;28;19934;-70
2024/02/10 09:03:49;;;;;;;;;;;2.70;100.00;;;;;;5086670;28;19936;-71
2024/02/10 09:06:22;;;;;;;;;;;2.70;100.00;;;;;;5101848;28;19935;-70
2024/02/10 09:08:50;;;;;;;;;;;2.70;100.00;;;;;;5085637;28;19997;-70
2024/02/10 09:11:18;;;;;;;;;;;2.70;100.00;;;;;;5080400;28;19932;-70
2024/02/10 09:13:45;;;;;;;;;;;2.70;100.00;;;;;;5086946;28;19932;-71
2024/02/10 09:16:12;;;;;;;;;;;2.80;100.00;;;;;;5086831;28;19928;-70
2024/02/10 09:18:42;;;;;;;;;;;2.80;100.00;;;;;;5086416;28;19939;-70
2024/02/10 09:21:09;;;;;;;;;;;2.90;100.00;;;;;;5086045;28;19999;-70
2024/02/10 09:23:36;;;;;;;;;;;2.90;100.00;;;;;;5071020;28;20670;-70
2024/02/10 09:26:03;;;;;;;;;;;2.90;100.00;;;;;;5069636;28;19974;-70
2024/02/10 09:28:31;;;;;;;;;;;3.00;100.00;;;;;;5068614;28;20020;-70
2024/02/10 09:30:58;;;;;;;;;;;3.00;100.00;;;;;;5087284;28;19928;-71
2024/02/10 09:33:26;;;;;;;;;;;3.00;100.00;;;;;;5068903;28;19974;-70
2024/02/10 09:35:53;;;;;;;;;;;3.00;100.00;;;;;;5085789;28;19932;-70
2024/02/10 09:38:22;;;;;;;;;;;3.10;100.00;;;;;;5086448;28;19997;-70
2024/02/10 09:40:56;;;;;;;;;;;3.10;100.00;;;;;;5086994;28;19932;-70
2024/02/10 09:43:31;;;;;;;;;;;3.10;100.00;;;;;;5101504;28;19963;-70
2024/02/10 09:46:00;;;;;;;;;;;3.10;100.00;;;;;;5086759;28;19964;-70
2024/02/10 09:48:27;;;;;;;;;;;3.20;100.00;;;;;;5086771;28;19928;-70
2024/02/10 09:50:54;;;;;;;;;;;3.20;100.00;;;;;;5085642;28;19928;-71
2024/02/10 09:53:21;;;;;;;;;;;3.20;100.00;;;;;;5081551;28;19928;-71
2024/02/10 09:55:52;;;;;;;;;;;3.30;100.00;;;;;;5092471;28;20048;-71
2024/02/10 09:58:25;;;;;;;;;;;3.30;100.00;;;;;;5085880;28;20315;-71
2024/02/10 10:00:52;;;;;;;;;;;3.30;100.00;;;;;;5086009;28;19989;-70
2024/02/10 10:03:20;;;;;;;;;;;3.30;100.00;;;;;;5084980;28;20434;-70
2024/02/10 10:05:47;;;;;;;;;;;3.40;100.00;;;;;;5086341;28;19928;-70
2024/02/10 10:08:14;;;;;;;;;;;3.40;100.00;;;;;;5100789;28;20404;-70
2024/02/10 10:10:41;;;;;;;;;;;3.40;100.00;;;;;;5086887;28;20080;-71
2024/02/10 10:13:09;;;;;;;;;;;3.40;100.00;;;;;;5089515;28;19939;-71
2024/02/10 10:15:36;;;;;;;;;;;3.40;100.00;;;;;;5072178;28;19927;-71
2024/02/10 10:18:11;;;;;;;;;;;3.40;100.00;;;;;;5072787;28;19928;-71
2024/02/10 10:20:38;;;;;;;;;;;3.50;100.00;;;;;;5074367;28;19932;-71
2024/02/10 10:23:07;;;;;;;;;;;3.50;100.00;;;;;;5071851;28;19971;-71
2024/02/10 10:25:34;;;;;;;;;;;3.60;100.00;;;;;;5090156;28;19928;-71
2024/02/10 10:28:02;;;;;;;;;;;3.60;100.00;;;;;;5090041;28;20022;-71
2024/02/10 10:30:29;;;;;;;;;;;3.60;100.00;;;;;;5084294;28;19932;-71
2024/02/10 10:32:57;;;;;;;;;;;3.60;100.00;;;;;;5071301;28;20653;-71
2024/02/10 10:35:26;;;;;;;;;;;3.60;100.00;;;;;;5089546;28;19928;-71
2024/02/10 10:37:55;;;;;;;;;;;3.60;100.00;;;;;;5104869;28;19977;-70
2024/02/10 10:40:22;;;;;;;;;;;3.50;100.00;;;;;;5089444;28;19928;-70
2024/02/10 10:42:50;;;;;;;;;;;3.50;100.00;;;;;;5089677;28;19928;-70
2024/02/10 10:45:17;;;;;;;;;;;3.60;100.00;;;;;;5088915;28;19963;-70
2024/02/10 10:47:45;;;;;;;;;;;3.60;100.00;;;;;;5089489;28;19984;-70
2024/02/10 10:50:12;;;;;;;;;;;3.70;100.00;;;;;;5088897;28;19939;-70
2024/02/10 10:52:42;;;;;;;;;;;3.70;100.00;;;;;;5105056;28;20556;-70
2024/02/10 10:55:11;;;;;;;;;;;3.70;100.00;;;;;;5098188;28;20331;-71
2024/02/10 10:57:40;;;;;;;;;;;3.60;100.00;;;;;;5074671;28;19924;-71
2024/02/10 11:00:18;;;;;;;;;;;3.70;100.00;;;;;;5088390;28;19988;-71
2024/02/10 11:02:50;;;;;;;;;;;3.80;100.00;;;;;;5089155;28;20013;-71
2024/02/10 11:05:18;;;;;;;;;;;3.70;100.00;;;;;;5088923;28;19970;-71
2024/02/10 11:07:49;;;;;;;;;;;3.80;100.00;;;;;;5088658;28;19924;-71
2024/02/10 11:10:38;;;;;;;;;;;3.80;100.00;;;;;;5070887;28;20352;-71
2024/02/10 11:13:05;;;;;;;;;;;3.90;100.00;;;;;;5099677;28;19931;-71
2024/02/10 11:15:40;;;;;;;;;;;3.90;100.00;;;;;;5087247;28;20353;-71
2024/02/10 11:18:19;;;;;;;;;;;3.90;100.00;;;;;;5070613;28;19931;-71
2024/02/10 11:20:46;;;;;;;;;;;4.00;100.00;;;;;;5075540;28;20662;-71
2024/02/10 11:23:17;;;;;;;;;;;4.00;100.00;;;;;;5070979;28;20388;-72
2024/02/10 11:25:43;;;;;;;;;;;4.20;100.00;;;;;;5089072;28;20673;-71
2024/02/10 11:28:20;;;;;;;;;;;4.20;100.00;;;;;;5088167;28;19939;-71
2024/02/10 11:30:48;;;;;;;;;;;4.30;100.00;;;;;;5087695;28;19932;-71
2024/02/10 11:33:17;;;;;;;;;;;4.40;100.00;;;;;;5087901;28;19928;-71
2024/02/10 11:35:46;;;;;;;;;;;4.50;100.00;;;;;;5070458;28;19927;-71
2024/02/10 11:38:14;;;;;;;;;;;4.60;100.00;;;;;;5088283;28;19928;-71
2024/02/10 11:40:41;;;;;;;;;;;4.70;100.00;;;;;;5087752;28;20001;-71
2024/02/10 11:43:10;;;;;;;;;;;4.70;100.00;;;;;;5087722;28;19949;-71
2024/02/10 11:45:37;;;;;;;;;;;4.60;100.00;;;;;;5088142;28;20011;-71
2024/02/10 11:48:08;;;;;;;;;;;4.70;100.00;;;;;;5086726;28;19928;-71
2024/02/10 11:50:42;;;;;;;;;;;4.60;100.00;;;;;;5087308;28;20005;-71
2024/02/10 11:53:25;;;;;;;;;;;4.60;100.00;;;;;;5059062;28;19924;-71
2024/02/10 11:55:51;;;;;;;;;;;4.60;100.00;;;;;;5087694;28;19934;-71
2024/02/10 11:58:18;;;;;;;;;;;4.60;100.00;;;;;;5087685;28;19928;-71
2024/02/10 12:00:45;;;;;;;;;;;4.60;100.00;;;;;;5086934;28;20018;-72
2024/02/10 12:03:18;;;;;;;;;;;4.60;100.00;;;;;;5087191;28;19973;-72
2024/02/10 12:05:46;;;;;;;;;;;4.60;100.00;;;;;;5100577;28;19928;-71
2024/02/10 12:08:13;;;;;;;;;;;4.50;100.00;;;;;;5087110;28;19948;-72
2024/02/10 12:10:40;;;;;;;;;;;4.60;100.00;;;;;;5087702;28;20436;-72
2024/02/10 12:13:09;;;;;;;;;;;4.60;100.00;;;;;;5088375;28;19927;-71
2024/02/10 12:15:37;;;;;;;;;;;4.60;100.00;;;;;;5087263;28;19928;-72
2024/02/10 12:18:04;;;;;;;;;;;4.60;100.00;;;;;;5068292;28;20356;-71
2024/02/10 12:20:34;;;;;;;;;;;4.60;100.00;;;;;;5084679;28;20054;-71
2024/02/10 12:23:02;;;;;;;;;;;4.60;100.00;;;;;;5086843;28;20453;-72
2024/02/10 12:25:29;;;;;;;;;;;4.60;100.00;;;;;;5087017;28;20443;-71
2024/02/10 12:27:57;;;;;;;;;;;4.60;100.00;;;;;;5069218;28;19928;-72
2024/02/10 12:30:24;;;;;;;;;;;4.70;100.00;;;;;;5087327;28;19932;-71
2024/02/10 12:32:53;;;;;;;;;;;4.70;100.00;;;;;;5087505;28;19985;-72
2024/02/10 12:35:20;;;;;;;;;;;4.70;100.00;;;;;;5068757;28;20041;-72
2024/02/10 12:37:47;;;;;;;;;;;4.80;100.00;;;;;;5087117;28;19931;-71
2024/02/10 12:40:14;;;;;;;;;;;4.80;100.00;;;;;;5087670;28;19927;-72
2024/02/10 12:42:44;;;;;;;;;;;4.80;100.00;;;;;;5086402;28;19981;-71
2024/02/10 12:45:16;;;;;;;;;;;4.90;100.00;;;;;;5082733;28;19981;-71
2024/02/10 12:47:45;;;;;;;;;;;5.00;100.00;;;;;;5101508;28;20011;-71
2024/02/10 12:50:12;;;;;;;;;;;5.00;100.00;;;;;;5099898;27;19924;-72
2024/02/10 12:52:40;;;;;;;;;;;5.00;100.00;;;;;;5087331;28;19928;-72
2024/02/10 12:55:13;;;;;;;;;;;4.90;100.00;;;;;;5096148;28;20401;-71
2024/02/10 12:57:41;;;;;;;;;;;4.90;100.00;;;;;;5090235;28;19928;-71
2024/02/10 13:00:24;;;;;;;;;;;4.90;100.00;;;;;;5087226;28;19928;-72
2024/02/10 13:02:51;;;;;;;;;;;4.90;100.00;;;;;;5067594;28;19939;-71
2024/02/10 13:05:20;;;;;;;;;;;4.90;100.00;;;;;;5087436;28;19939;-72
2024/02/10 13:07:47;;;;;;;;;;;4.90;100.00;;;;;;5080904;28;19932;-71
2024/02/10 13:10:20;;;;;;;;;;;5.00;100.00;;;;;;5085643;28;20018;-72
2024/02/10 13:12:48;;;;;;;;;;;5.00;100.00;;;;;;5087195;28;19930;-71
2024/02/10 13:15:15;;;;;;;;;;;5.00;100.00;;;;;;5068316;28;20364;-71
2024/02/10 13:17:42;;;;;;;;;;;5.00;100.00;;;;;;5086936;28;20420;-71
2024/02/10 13:20:11;;;;;;;;;;;5.00;100.00;;;;;;5068839;28;19928;-71
2024/02/10 13:22:39;;;;;;;;;;;4.90;100.00;;;;;;5085874;28;20684;-71
2024/02/10 13:25:08;;;;;;;;;;;4.90;100.00;;;;;;5069035;28;19983;-71
2024/02/10 13:27:38;;;;;;;;;;;4.80;100.00;;;;;;5101937;28;19929;-71
2024/02/10 13:30:08;;;;;;;;;;;4.80;100.00;;;;;;5086465;28;20027;-71
2024/02/10 13:32:40;;;;;;;;;;;4.90;100.00;;;;;;5068273;28;19998;-75
2024/02/10 13:35:15;;;;;;;;;;;4.90;100.00;;;;;;5069379;28;20563;-70
2024/02/10 14:08:15;;;;;;;;;;;5.00;100.00;;;;;;5090016;28;20273;-72
2024/02/10 14:12:48;;;;;;;;;;;4.90;100.00;;;;;;5089818;28;19932;-72
2024/02/10 14:15:27;;;;;;;;;;;4.90;100.00;;;;;;5090197;28;19972;-72
2024/02/10 14:18:01;;;;;;;;;;;4.90;100.00;;;;;;5068826;28;19936;-72
2024/02/10 14:20:33;;;;;;;;;;;4.90;100.00;;;;;;5090240;28;19928;-72
2024/02/10 14:23:01;;;;;;;;;;;4.90;100.00;;;;;;5089925;28;19924;-72
2024/02/10 14:25:29;;;;;;;;;;;4.90;100.00;;;;;;5089908;28;19939;-72
2024/02/10 14:28:04;;;;;;;;;;;4.90;100.00;;;;;;5072052;28;19928;-71
2024/02/10 14:30:31;;;;;;;;;;;4.90;100.00;;;;;;5089453;28;19932;-72
2024/02/10 14:32:59;;;;;;;;;;;5.00;100.00;;;;;;5089347;28;19947;-72
2024/02/10 14:35:46;;;;;;;;;;;5.00;100.00;;;;;;5107478;27;19986;-72
2024/02/10 14:38:24;;;;;;;;;;;5.00;100.00;;;;;;5087268;28;19928;-72
2024/02/10 14:40:53;;;;;;;;;;;4.90;100.00;;;;;;5071315;28;19928;-72
2024/02/10 14:43:23;;;;;;;;;;;4.90;100.00;;;;;;5071418;28;19928;-72
2024/02/10 14:45:50;;;;;;;;;;;4.90;100.00;;;;;;5076055;28;19935;-71
2024/02/10 14:48:16;;;;;;;;;;;4.80;100.00;;;;;;5088467;28;19928;-72
2024/02/10 14:50:44;;;;;;;;;;;4.80;100.00;;;;;;5071770;28;19963;-72
2024/02/10 14:53:11;;;;;;;;;;;4.80;100.00;;;;;;5081440;28;20042;-71
2024/02/10 14:55:38;;;;;;;;;;;4.70;100.00;;;;;;5089386;28;19932;-71
2024/02/10 14:58:05;;;;;;;;;;;4.70;100.00;;;;;;5089149;28;20001;-72